createdAt,value
2023-03-05T00:01:26.348Z,97947.00
2023-03-05T00:03:55.856Z,97942.56
2023-03-05T00:06:25.800Z,97948.53
2023-03-05T00:08:53.649Z,97946.59
2023-03-05T00:11:21.948Z,97940.34
2023-03-05T00:13:51.761Z,97946.41
2023-03-05T00:16:18.808Z,97939.84
2023-03-05T00:18:46.694Z,97937.06
2023-03-05T00:21:21.570Z,97937.81
2023-03-05T00:23:48.552Z,97929.81
2023-03-05T00:26:15.792Z,97925.47
2023-03-05T00:28:44.296Z,97923.31
2023-03-05T00:31:11.561Z,97918.78
2023-03-05T00:33:41.586Z,97922.13
2023-03-05T00:36:09.042Z,97918.81
2023-03-05T00:38:35.930Z,97916.44
2023-03-05T00:41:02.533Z,97919.91
2023-03-05T00:43:30.388Z,97913.13
2023-03-05T00:45:57.340Z,97911.75
2023-03-05T00:48:23.913Z,97905.19
2023-03-05T00:50:50.766Z,97896.84
2023-03-05T00:53:17.679Z,97906.03
2023-03-05T00:55:45.266Z,97902.09
2023-03-05T00:58:12.225Z,97902.44
2023-03-05T01:00:39.026Z,97896.09
2023-03-05T01:03:06.006Z,97894.81
2023-03-05T01:05:33.470Z,97902.63
2023-03-05T01:08:00.506Z,97897.03
2023-03-05T01:10:27.923Z,97899.53
2023-03-05T01:12:55.943Z,97889.66
2023-03-05T01:15:24.947Z,97886.78
2023-03-05T01:17:52.216Z,97881.34
2023-03-05T01:20:28.533Z,97885.16
2023-03-05T01:22:55.504Z,97877.41
2023-03-05T01:25:22.311Z,97879.63
2023-03-05T01:27:51.044Z,97875.69
2023-03-05T01:30:18.579Z,97866.97
2023-03-05T01:32:45.626Z,97864.25
2023-03-05T01:35:24.775Z,97863.16
2023-03-05T01:37:52.861Z,97861.38
2023-03-05T01:40:26.217Z,97860.41
2023-03-05T01:43:07.140Z,97860.50
2023-03-05T01:45:34.370Z,97854.13
2023-03-05T01:48:01.209Z,97847.28
2023-03-05T01:50:29.272Z,97850.88
2023-03-05T01:53:03.019Z,97848.03
2023-03-05T01:55:33.042Z,97845.78
2023-03-05T01:58:02.927Z,97839.63
2023-03-05T02:00:34.235Z,97839.06
2023-03-05T02:03:07.991Z,97835.03
2023-03-05T02:05:41.182Z,97839.06
2023-03-05T02:08:11.124Z,97834.44
2023-03-05T02:10:43.896Z,97835.78
2023-03-05T02:13:12.704Z,97825.25
2023-03-05T02:15:40.196Z,97833.78
2023-03-05T02:18:08.666Z,97823.91
2023-03-05T02:20:49.376Z,97830.03
2023-03-05T02:23:18.360Z,97825.81
2023-03-05T02:25:45.680Z,97825.38
2023-03-05T02:28:22.519Z,97823.25
2023-03-05T02:30:50.214Z,97828.50
2023-03-05T02:33:19.022Z,97819.44
2023-03-05T02:35:46.480Z,97819.34
2023-03-05T02:38:15.388Z,97819.31
2023-03-05T02:40:42.464Z,97815.31
2023-03-05T02:43:10.202Z,97808.66
2023-03-05T02:45:38.290Z,97813.03
2023-03-05T02:48:05.784Z,97812.88
2023-03-05T02:50:34.316Z,97802.00
2023-03-05T02:53:01.260Z,97800.78
2023-03-05T02:55:29.037Z,97808.75
2023-03-05T02:57:56.196Z,97799.38
2023-03-05T03:00:23.041Z,97809.97
2023-03-05T03:02:57.993Z,97803.56
2023-03-05T03:05:27.411Z,97801.44
2023-03-05T03:07:54.262Z,97807.25
2023-03-05T03:10:27.434Z,97806.59
2023-03-05T03:12:54.297Z,97800.72
2023-03-05T03:15:21.277Z,97799.66
2023-03-05T03:17:51.224Z,97801.56
2023-03-05T03:20:19.285Z,97796.63
2023-03-05T03:22:46.890Z,97790.34
2023-03-05T03:25:19.098Z,97793.28
2023-03-05T03:27:45.931Z,97794.06
2023-03-05T03:30:13.392Z,97789.94
2023-03-05T03:32:40.337Z,97786.03
2023-03-05T03:35:08.168Z,97790.13
2023-03-05T03:37:35.030Z,97786.50
2023-03-05T03:40:02.118Z,97787.28
2023-03-05T03:42:28.964Z,97785.84
2023-03-05T03:44:56.038Z,97783.03
2023-03-05T03:47:30.381Z,97780.75
2023-03-05T03:49:58.771Z,97780.47
2023-03-05T03:52:27.136Z,97781.00
2023-03-05T03:54:55.887Z,97773.38
2023-03-05T03:57:22.972Z,97774.41
2023-03-05T03:59:50.486Z,97781.69
2023-03-05T04:02:18.344Z,97779.97
2023-03-05T04:04:45.295Z,97783.81
2023-03-05T04:07:12.063Z,97780.13
2023-03-05T04:09:39.095Z,97764.78
2023-03-05T04:12:06.060Z,97762.50
2023-03-05T04:14:33.327Z,97766.75
2023-03-05T04:17:00.271Z,97764.31
2023-03-05T04:19:28.448Z,97762.81
2023-03-05T04:21:55.596Z,97759.00
2023-03-05T04:24:22.634Z,97760.38
2023-03-05T04:26:49.278Z,97761.75
2023-03-05T04:29:20.817Z,97759.53
2023-03-05T04:31:47.689Z,97756.31
2023-03-05T04:34:14.257Z,97753.56
2023-03-05T04:36:41.085Z,97760.53
2023-03-05T04:39:08.183Z,97756.91
2023-03-05T04:41:35.047Z,97752.31
2023-03-05T04:44:02.278Z,97752.34
2023-03-05T04:46:29.125Z,97754.94
2023-03-05T04:49:02.223Z,97755.50
2023-03-05T04:51:29.161Z,97750.25
2023-03-05T04:53:56.528Z,97746.53
2023-03-05T04:56:23.409Z,97756.84
2023-03-05T04:58:50.481Z,97740.88
2023-03-05T05:01:17.639Z,97755.34
2023-03-05T05:03:44.417Z,97757.94
2023-03-05T05:06:11.523Z,97765.16
2023-03-05T05:08:38.533Z,97756.94
2023-03-05T05:11:08.130Z,97761.03
2023-03-05T05:13:35.216Z,97773.41
2023-03-05T05:16:02.645Z,97760.13
2023-03-05T05:18:30.923Z,97768.63
2023-03-05T05:20:57.806Z,97768.72
2023-03-05T05:23:25.438Z,97769.84
2023-03-05T05:26:00.512Z,97770.88
2023-03-05T05:28:28.103Z,97770.16
2023-03-05T05:30:57.283Z,97776.84
2023-03-05T05:33:24.644Z,97777.22
2023-03-05T05:35:51.850Z,97770.63
2023-03-05T05:38:19.471Z,97776.03
2023-03-05T05:40:46.147Z,97776.69
2023-03-05T05:43:12.989Z,97779.31
2023-03-05T05:45:39.791Z,97778.38
2023-03-05T05:48:07.255Z,97780.59
2023-03-05T05:50:37.838Z,97775.47
2023-03-05T05:53:04.871Z,97778.75
2023-03-05T05:55:34.765Z,97778.00
2023-03-05T05:58:01.575Z,97782.69
2023-03-05T06:00:31.138Z,97787.13
2023-03-05T06:03:01.047Z,97787.47
2023-03-05T06:05:28.090Z,97785.50
2023-03-05T06:07:54.991Z,97787.00
2023-03-05T06:10:22.127Z,97784.13
2023-03-05T06:12:48.926Z,97789.50
2023-03-05T06:15:16.077Z,97801.06
2023-03-05T06:17:42.940Z,97788.28
2023-03-05T06:20:12.683Z,97794.59
2023-03-05T06:22:40.713Z,97794.00
2023-03-05T06:25:09.308Z,97794.38
2023-03-05T06:27:38.952Z,97795.56
2023-03-05T06:30:06.946Z,97791.09
2023-03-05T06:32:35.996Z,97783.00
2023-03-05T06:35:03.534Z,97786.91
2023-03-05T06:37:30.248Z,97776.91
2023-03-05T06:39:57.438Z,97781.09
2023-03-05T06:42:24.476Z,97788.38
2023-03-05T06:44:51.644Z,97782.03
2023-03-05T06:47:18.643Z,97778.09
2023-03-05T06:49:45.563Z,97778.94
2023-03-05T06:52:16.641Z,97778.84
2023-03-05T06:54:43.474Z,97778.22
2023-03-05T06:57:11.118Z,97780.09
2023-03-05T06:59:38.230Z,97773.00
2023-03-05T07:02:05.077Z,97776.53
2023-03-05T07:04:31.894Z,97784.00
2023-03-05T07:07:00.759Z,97784.56
2023-03-05T07:09:27.555Z,97782.81
2023-03-05T07:11:54.457Z,97783.28
2023-03-05T07:14:22.525Z,97784.53
2023-03-05T07:16:50.429Z,97787.38
2023-03-05T07:19:17.467Z,97770.03
2023-03-05T07:21:46.606Z,97772.88
2023-03-05T07:24:29.869Z,97778.22
2023-03-05T07:26:57.617Z,97783.91
2023-03-05T07:29:26.474Z,97773.31
2023-03-05T07:31:54.112Z,97778.38
2023-03-05T07:34:29.882Z,97771.75
2023-03-05T07:36:57.379Z,97780.75
2023-03-05T07:39:27.202Z,97775.28
2023-03-05T07:41:57.728Z,97780.34
2023-03-05T07:44:29.788Z,97776.25
2023-03-05T07:46:57.312Z,97770.06
2023-03-05T07:49:24.717Z,97773.22
2023-03-05T07:51:52.620Z,97778.38
2023-03-05T07:54:19.419Z,97767.53
2023-03-05T07:56:46.550Z,97777.25
2023-03-05T07:59:14.029Z,97780.81
2023-03-05T08:01:41.150Z,97787.13
2023-03-05T08:04:11.013Z,97782.75
2023-03-05T08:06:42.456Z,97792.63
2023-03-05T08:09:10.177Z,97783.56
2023-03-05T08:11:37.130Z,97778.59
2023-03-05T08:14:04.768Z,97776.94
2023-03-05T08:16:32.620Z,97773.91
2023-03-05T08:19:00.224Z,97774.34
2023-03-05T08:21:35.841Z,97781.00
2023-03-05T08:24:06.631Z,97778.94
2023-03-05T08:26:35.974Z,97770.97
2023-03-05T08:29:03.706Z,97773.22
2023-03-05T08:31:31.580Z,97758.72
2023-03-05T08:34:00.721Z,97766.28
2023-03-05T08:36:29.192Z,97750.25
2023-03-05T08:39:01.573Z,97750.03
2023-03-05T08:41:28.884Z,97756.50
2023-03-05T08:43:56.128Z,97748.13
2023-03-05T08:46:23.545Z,97747.91
2023-03-05T08:48:50.444Z,97744.53
2023-03-05T08:51:21.198Z,97749.13
2023-03-05T08:53:48.581Z,97740.41
2023-03-05T08:56:15.674Z,97736.09
2023-03-05T08:58:43.168Z,97742.06
2023-03-05T09:01:10.276Z,97737.59
2023-03-05T09:03:37.366Z,97735.38
2023-03-05T09:06:11.735Z,97737.66
2023-03-05T09:08:39.903Z,97730.81
2023-03-05T09:11:09.749Z,97732.19
2023-03-05T09:13:37.513Z,97737.50
2023-03-05T09:16:08.564Z,97725.91
2023-03-05T09:18:38.567Z,97723.09
2023-03-05T09:21:07.468Z,97726.72
2023-03-05T09:23:34.899Z,97709.66
2023-03-05T09:26:08.690Z,97722.41
2023-03-05T09:28:35.831Z,97716.88
2023-03-05T09:31:04.327Z,97699.91
2023-03-05T09:33:32.926Z,97714.56
2023-03-05T09:36:01.404Z,97710.97
2023-03-05T09:38:28.785Z,97695.28
2023-03-05T09:41:15.875Z,97695.72
2023-03-05T09:44:06.073Z,97701.91
2023-03-05T09:46:44.126Z,97701.38
2023-03-05T09:49:39.416Z,97693.91
2023-03-05T09:52:26.783Z,97695.31
2023-03-05T09:54:57.204Z,97696.22
2023-03-05T09:57:44.589Z,97675.78
2023-03-05T10:00:38.680Z,97677.72
2023-03-05T10:03:13.352Z,97682.97
2023-03-05T10:05:50.797Z,97693.84
2023-03-05T10:08:22.422Z,97686.94
2023-03-05T10:10:53.604Z,97684.16
2023-03-05T10:13:25.552Z,97683.31
2023-03-05T10:16:13.622Z,97680.56
2023-03-05T10:18:51.873Z,97677.16
2023-03-05T10:21:30.660Z,97676.41
2023-03-05T10:24:12.221Z,97671.63
2023-03-05T10:27:15.646Z,97666.88
2023-03-05T10:29:59.614Z,97660.44
2023-03-05T10:32:35.630Z,97661.47
2023-03-05T10:35:53.465Z,97663.28
2023-03-05T10:39:02.385Z,97667.63
2023-03-05T10:41:55.165Z,97660.78
2023-03-05T10:44:35.508Z,97648.56
2023-03-05T10:47:03.784Z,97645.06
2023-03-05T10:49:37.765Z,97634.69
2023-03-05T10:52:28.586Z,97639.47
2023-03-05T10:54:55.444Z,97634.56
2023-03-05T10:57:25.138Z,97642.47
2023-03-05T11:00:18.610Z,97641.84
2023-03-05T11:03:04.785Z,97633.59
2023-03-05T11:05:42.379Z,97625.38
2023-03-05T11:08:28.762Z,97637.78
2023-03-05T11:11:17.916Z,97630.13
2023-03-05T11:13:59.980Z,97621.47
2023-03-05T11:16:30.443Z,97603.88
2023-03-05T11:19:21.398Z,97601.72
2023-03-05T11:22:15.911Z,97599.84
2023-03-05T11:24:46.792Z,97595.31
2023-03-05T11:27:55.019Z,97592.97
2023-03-05T11:30:26.040Z,97592.47
2023-03-05T11:33:17.779Z,97592.28
2023-03-05T11:35:45.193Z,97585.31
2023-03-05T11:38:24.707Z,97577.22
2023-03-05T11:40:53.848Z,97576.28
2023-03-05T11:43:23.966Z,97568.69
2023-03-05T11:45:59.629Z,97559.59
2023-03-05T11:48:35.136Z,97555.84
2023-03-05T11:51:19.665Z,97542.03
2023-03-05T11:53:52.456Z,97545.09
2023-03-05T11:56:21.661Z,97547.00
2023-03-05T11:59:28.469Z,97543.84
2023-03-05T12:01:57.658Z,97540.78
2023-03-05T12:04:25.412Z,97538.69
2023-03-05T12:06:56.030Z,97535.94
2023-03-05T12:09:44.465Z,97527.88
2023-03-05T12:12:38.939Z,97532.91
2023-03-05T12:15:15.471Z,97526.91
2023-03-05T12:18:02.146Z,97536.09
2023-03-05T12:20:53.788Z,97527.06
2023-03-05T12:23:28.166Z,97510.94
2023-03-05T12:26:00.072Z,97511.88
2023-03-05T12:28:36.621Z,97501.66
2023-03-05T12:31:10.263Z,97503.44
2023-03-05T12:33:44.727Z,97498.91
2023-03-05T12:36:17.658Z,97495.22
2023-03-05T12:38:53.588Z,97500.50
2023-03-05T12:41:23.514Z,97489.69
2023-03-05T12:44:19.110Z,97486.94
2023-03-05T12:47:07.594Z,97494.44
2023-03-05T12:49:46.027Z,97490.41
2023-03-05T12:52:25.215Z,97483.50
2023-03-05T12:55:14.957Z,97481.47
2023-03-05T12:57:45.940Z,97481.78
2023-03-05T13:00:43.315Z,97489.63
2023-03-05T13:03:16.997Z,97475.13
2023-03-05T13:05:53.861Z,97474.28
2023-03-05T13:08:25.912Z,97477.41
2023-03-05T13:10:55.257Z,97462.66
2023-03-05T13:13:23.925Z,97467.72
2023-03-05T13:15:52.785Z,97467.81
2023-03-05T13:18:31.987Z,97467.75
2023-03-05T13:21:04.572Z,97471.44
2023-03-05T13:23:33.270Z,97462.44
2023-03-05T13:26:12.838Z,97469.88
2023-03-05T13:28:40.191Z,97460.94
2023-03-05T13:31:18.650Z,97466.50
2023-03-05T13:33:56.381Z,97464.34
2023-03-05T13:36:27.132Z,97460.63
2023-03-05T13:38:54.465Z,97465.50
2023-03-05T13:41:28.501Z,97471.63
2023-03-05T13:43:56.588Z,97470.63
2023-03-05T13:46:39.316Z,97466.00
2023-03-05T13:49:27.379Z,97476.25
2023-03-05T13:51:58.086Z,97476.19
2023-03-05T13:54:27.028Z,97467.97
2023-03-05T13:56:59.936Z,97475.19
2023-03-05T13:59:31.762Z,97463.69
2023-03-05T14:02:01.126Z,97459.88
2023-03-05T14:04:34.721Z,97455.13
2023-03-05T14:07:41.727Z,97459.16
2023-03-05T14:10:35.089Z,97453.16
2023-03-05T14:13:25.771Z,97452.75
2023-03-05T14:16:28.178Z,97449.72
2023-03-05T14:19:01.716Z,97443.34
2023-03-05T14:21:47.660Z,97439.38
2023-03-05T14:24:50.584Z,97428.88
2023-03-05T14:28:07.574Z,97423.28
2023-03-05T14:30:50.725Z,97436.06
2023-03-05T14:33:36.998Z,97434.22
2023-03-05T14:36:05.029Z,97429.94
2023-03-05T14:38:36.364Z,97417.50
2023-03-05T14:41:22.777Z,97433.56
2023-03-05T14:43:50.229Z,97429.19
2023-03-05T14:46:17.458Z,97429.66
2023-03-05T14:48:45.115Z,97429.41
2023-03-05T14:51:12.979Z,97421.44
2023-03-05T14:53:48.448Z,97416.06
2023-03-05T14:56:24.454Z,97420.03
2023-03-05T14:58:57.843Z,97414.63
2023-03-05T15:01:25.500Z,97410.06
2023-03-05T15:03:52.962Z,97410.38
2023-03-05T15:06:50.762Z,97415.16
2023-03-05T15:09:19.916Z,97405.59
2023-03-05T15:11:48.326Z,97405.91
2023-03-05T15:14:15.196Z,97397.34
2023-03-05T15:16:43.467Z,97401.94
2023-03-05T15:19:13.844Z,97392.72
2023-03-05T15:21:41.700Z,97403.84
2023-03-05T15:24:11.320Z,97392.81
2023-03-05T15:26:38.653Z,97387.44
2023-03-05T15:29:05.692Z,97370.25
2023-03-05T15:31:38.689Z,97372.50
2023-03-05T15:34:06.468Z,97374.69
2023-03-05T15:36:37.154Z,97371.13
2023-03-05T15:39:04.137Z,97379.16
2023-03-05T15:41:31.257Z,97367.97
2023-03-05T15:43:58.292Z,97371.66
2023-03-05T15:46:25.770Z,97360.84
2023-03-05T15:48:52.681Z,97369.75
2023-03-05T15:51:20.514Z,97376.06
2023-03-05T15:53:47.886Z,97368.34
2023-03-05T15:56:16.791Z,97370.72
2023-03-05T15:58:43.708Z,97365.78
2023-03-05T16:01:12.076Z,97373.03
2023-03-05T16:03:41.387Z,97368.88
2023-03-05T16:06:26.719Z,97370.19
2023-03-05T16:09:14.096Z,97360.59
2023-03-05T16:11:48.225Z,97362.59
2023-03-05T16:14:19.483Z,97362.84
2023-03-05T16:16:47.878Z,97360.84
2023-03-05T16:19:18.249Z,97363.13
2023-03-05T16:21:47.177Z,97347.66
2023-03-05T16:24:20.369Z,97357.00
2023-03-05T16:26:47.870Z,97350.00
2023-03-05T16:29:17.457Z,97351.28
2023-03-05T16:31:46.314Z,97345.41
2023-03-05T16:34:14.616Z,97351.19
2023-03-05T16:36:48.513Z,97352.09
2023-03-05T16:39:15.648Z,97339.81
2023-03-05T16:41:42.881Z,97352.19
2023-03-05T16:44:11.190Z,97348.53
2023-03-05T16:46:41.400Z,97341.34
2023-03-05T16:49:09.141Z,97344.94
2023-03-05T16:51:36.838Z,97350.13
2023-03-05T16:54:10.088Z,97344.75
2023-03-05T16:56:38.735Z,97341.91
2023-03-05T16:59:05.994Z,97345.81
2023-03-05T17:01:33.319Z,97351.22
2023-03-05T17:04:00.659Z,97353.38
2023-03-05T17:06:31.326Z,97357.06
2023-03-05T17:08:59.201Z,97353.94
2023-03-05T17:11:29.186Z,97352.38
2023-03-05T17:13:56.376Z,97356.13
2023-03-05T17:16:23.309Z,97352.94
2023-03-05T17:18:50.277Z,97358.44
2023-03-05T17:21:17.532Z,97360.03
2023-03-05T17:23:44.802Z,97355.94
2023-03-05T17:26:15.516Z,97359.59
2023-03-05T17:28:42.942Z,97367.75
2023-03-05T17:31:10.814Z,97367.06
2023-03-05T17:33:38.606Z,97370.50
2023-03-05T17:36:06.489Z,97373.66
2023-03-05T17:38:33.324Z,97379.94
2023-03-05T17:40:59.987Z,97371.94
2023-03-05T17:43:26.966Z,97378.75
2023-03-05T17:45:59.828Z,97384.63
2023-03-05T17:48:28.141Z,97384.41
2023-03-05T17:50:58.416Z,97387.25
2023-03-05T17:53:25.303Z,97387.59
2023-03-05T17:55:52.769Z,97387.16
2023-03-05T17:58:20.065Z,97388.66
2023-03-05T18:00:47.128Z,97380.41
2023-03-05T18:03:14.702Z,97385.19
2023-03-05T18:05:42.102Z,97376.22
2023-03-05T18:08:09.587Z,97377.97
2023-03-05T18:10:41.501Z,97369.88
2023-03-05T18:13:09.129Z,97376.47
2023-03-05T18:15:38.203Z,97372.25
2023-03-05T18:18:07.530Z,97360.25
2023-03-05T18:20:37.528Z,97367.38
2023-03-05T18:23:06.125Z,97370.03
2023-03-05T18:25:34.109Z,97360.69
2023-03-05T18:28:08.559Z,97358.69
2023-03-05T18:30:36.623Z,97365.00
2023-03-05T18:33:09.312Z,97361.81
2023-03-05T18:35:36.903Z,97351.22
2023-03-05T18:38:06.548Z,97357.91
2023-03-05T18:40:35.897Z,97357.56
2023-03-05T18:43:03.146Z,97358.78
2023-03-05T18:45:35.924Z,97353.75
2023-03-05T18:48:03.122Z,97347.03
2023-03-05T18:50:30.469Z,97351.56
2023-03-05T18:52:57.583Z,97347.72
2023-03-05T18:55:28.073Z,97356.03
2023-03-05T18:57:55.929Z,97351.81
2023-03-05T19:00:53.667Z,97354.81
2023-03-05T19:03:22.868Z,97354.44
2023-03-05T19:05:51.254Z,97353.09
2023-03-05T19:08:18.833Z,97349.22
2023-03-05T19:10:49.522Z,97356.59
2023-03-05T19:13:37.005Z,97338.88
2023-03-05T19:16:11.893Z,97358.34
2023-03-05T19:18:44.893Z,97343.47
2023-03-05T19:21:12.238Z,97343.88
2023-03-05T19:23:39.251Z,97359.50
2023-03-05T19:26:06.257Z,97350.94
2023-03-05T19:28:33.342Z,97354.91
2023-03-05T19:31:00.362Z,97356.22
2023-03-05T19:33:27.446Z,97346.41
2023-03-05T19:38:24.955Z,97337.28
2023-03-05T19:40:51.983Z,97347.66
2023-03-05T19:43:18.885Z,97345.88
2023-03-05T19:45:46.244Z,97349.06
2023-03-05T19:48:14.135Z,97355.28
2023-03-05T19:50:41.130Z,97337.59
2023-03-05T19:53:08.058Z,97335.41
2023-03-05T19:55:42.484Z,97341.06
2023-03-05T19:58:09.494Z,97335.75
2023-03-05T20:00:36.630Z,97339.03
2023-03-05T20:03:03.718Z,97334.19
2023-03-05T20:05:30.792Z,97336.88
2023-03-05T20:07:58.051Z,97341.88
2023-03-05T20:10:25.687Z,97337.88
2023-03-05T20:12:53.886Z,97327.03
2023-03-05T20:15:23.451Z,97327.91
2023-03-05T20:17:52.716Z,97333.94
2023-03-05T20:20:19.942Z,97334.97
2023-03-05T20:22:47.644Z,97329.06
2023-03-05T20:25:17.618Z,97328.66
2023-03-05T20:27:50.916Z,97325.31
2023-03-05T20:30:18.059Z,97322.56
2023-03-05T20:34:39.640Z,97322.28
2023-03-05T20:37:06.707Z,97322.78
2023-03-05T20:39:37.994Z,97322.69
2023-03-05T20:42:05.459Z,97322.28
2023-03-05T20:44:33.718Z,97319.53
2023-03-05T20:47:12.663Z,97319.72
2023-03-05T20:49:39.790Z,97316.38
2023-03-05T20:52:06.817Z,97305.38
2023-03-05T20:54:34.080Z,97309.56
2023-03-05T20:57:02.402Z,97308.38
2023-03-05T20:59:29.239Z,97306.81
2023-03-05T21:01:56.493Z,97313.59
2023-03-05T21:04:23.327Z,97302.22
2023-03-05T21:06:53.676Z,97308.88
2023-03-05T21:09:21.839Z,97303.44
2023-03-05T21:11:48.778Z,97297.69
2023-03-05T21:14:15.624Z,97301.94
2023-03-05T21:16:43.378Z,97296.47
2023-03-05T21:19:10.835Z,97304.09
2023-03-05T21:21:39.173Z,97295.16
2023-03-05T21:24:06.761Z,97288.34
2023-03-05T21:26:33.846Z,97289.00
2023-03-05T21:29:00.669Z,97285.94
2023-03-05T21:31:28.071Z,97284.03
2023-03-05T21:33:55.007Z,97278.94
2023-03-05T21:36:23.742Z,97281.31
2023-03-05T21:38:50.697Z,97278.72
2023-03-05T21:41:20.510Z,97266.94
2023-03-05T21:43:48.159Z,97270.19
2023-03-05T21:46:15.341Z,97262.94
2023-03-05T21:48:42.782Z,97265.28
2023-03-05T21:51:11.589Z,97261.59
2023-03-05T21:53:38.575Z,97258.31
2023-03-05T21:56:21.232Z,97260.88
2023-03-05T21:58:49.993Z,97253.22
2023-03-05T22:01:19.320Z,97238.50
2023-03-05T22:03:46.845Z,97232.22
2023-03-05T22:06:16.695Z,97239.44
2023-03-05T22:08:44.237Z,97235.69
2023-03-05T22:11:16.814Z,97235.38
2023-03-05T22:13:44.761Z,97240.59
2023-03-05T22:16:12.232Z,97243.25
2023-03-05T22:18:39.023Z,97243.97
2023-03-05T22:21:14.891Z,97246.56
2023-03-05T22:23:42.156Z,97248.91
2023-03-05T22:26:09.856Z,97243.25
2023-03-05T22:28:39.054Z,97242.16
2023-03-05T22:31:06.792Z,97247.94
2023-03-05T22:33:34.297Z,97245.75
2023-03-05T22:36:07.750Z,97245.84
2023-03-05T22:38:34.674Z,97243.13
2023-03-05T22:41:01.580Z,97249.31
2023-03-05T22:43:28.583Z,97237.13
2023-03-05T22:45:55.571Z,97229.78
2023-03-05T22:48:22.824Z,97233.63
2023-03-05T22:50:57.774Z,97231.38
2023-03-05T22:53:24.835Z,97235.13
2023-03-05T22:55:51.810Z,97230.28
2023-03-05T22:58:18.953Z,97225.38
2023-03-05T23:00:46.148Z,97227.81
2023-03-05T23:03:13.381Z,97230.31
2023-03-05T23:05:40.890Z,97230.75
2023-03-05T23:08:08.491Z,97229.97
2023-03-05T23:10:35.478Z,97228.84
2023-03-05T23:13:02.465Z,97227.50
2023-03-05T23:15:38.211Z,97220.66
2023-03-05T23:18:06.629Z,97223.25
2023-03-05T23:20:36.387Z,97208.88
2023-03-05T23:23:04.189Z,97216.06
2023-03-05T23:25:34.225Z,97207.63
2023-03-05T23:28:02.018Z,97200.44
2023-03-05T23:30:37.378Z,97205.09
2023-03-05T23:33:16.154Z,97209.28
2023-03-05T23:35:48.848Z,97196.72
2023-03-05T23:38:16.511Z,97188.66
2023-03-05T23:40:51.824Z,97194.84
2023-03-05T23:43:20.015Z,97194.31
2023-03-05T23:45:48.985Z,97189.38
2023-03-05T23:48:17.527Z,97182.19
2023-03-05T23:50:47.559Z,97193.22
2023-03-05T23:53:25.431Z,97192.53
2023-03-05T23:55:52.427Z,97187.31
2023-03-05T23:58:22.472Z,97190.88
